createdAt,value
2022-11-03T00:01:44.574Z,100126.66
2022-11-03T00:04:13.838Z,100137.66
2022-11-03T00:06:42.073Z,100137.78
2022-11-03T00:09:13.602Z,100140.03
2022-11-03T00:11:41.996Z,100138.38
2022-11-03T00:14:10.148Z,100136.53
2022-11-03T00:16:37.546Z,100135.38
2022-11-03T00:19:04.396Z,100132.31
2022-11-03T00:21:31.325Z,100130.47
2022-11-03T00:23:58.098Z,100134.50
2022-11-03T00:26:29.291Z,100136.78
2022-11-03T00:28:57.689Z,100130.13
2022-11-03T00:31:29.848Z,100136.13
2022-11-03T00:33:57.120Z,100136.13
2022-11-03T00:36:32.269Z,100137.03
2022-11-03T00:38:58.820Z,100134.53
2022-11-03T00:41:26.717Z,100129.88
2022-11-03T00:43:53.873Z,100125.41
2022-11-03T00:46:21.895Z,100125.66
2022-11-03T00:48:48.562Z,100124.34
2022-11-03T00:51:22.460Z,100130.31
2022-11-03T00:53:56.826Z,100127.09
2022-11-03T00:56:27.225Z,100121.59
2022-11-03T00:58:55.103Z,100130.31
2022-11-03T01:01:27.752Z,100121.97
2022-11-03T01:04:14.869Z,100123.69
2022-11-03T01:06:50.128Z,100114.84
2022-11-03T01:09:31.446Z,100114.28
2022-11-03T01:12:13.950Z,100117.72
2022-11-03T01:14:42.056Z,100117.72
2022-11-03T01:17:13.403Z,100124.59
2022-11-03T01:19:40.074Z,100117.91
2022-11-03T01:22:10.565Z,100126.09
2022-11-03T01:24:38.714Z,100122.34
2022-11-03T01:27:05.186Z,100125.28
2022-11-03T01:29:31.764Z,100133.94
2022-11-03T01:31:58.561Z,100134.03
2022-11-03T01:34:25.253Z,100129.41
2022-11-03T01:36:51.853Z,100131.59
2022-11-03T01:39:19.408Z,100128.03
2022-11-03T01:41:48.423Z,100125.75
2022-11-03T01:44:14.867Z,100119.03
2022-11-03T01:47:09.232Z,100113.69
2022-11-03T01:49:44.551Z,100115.34
2022-11-03T01:52:20.226Z,100109.53
2022-11-03T01:54:50.193Z,100107.44
2022-11-03T01:57:29.107Z,100092.91
2022-11-03T01:59:58.930Z,100096.44
2022-11-03T02:02:26.912Z,100093.25
2022-11-03T02:04:54.537Z,100089.22
2022-11-03T02:07:42.027Z,100092.97
2022-11-03T02:10:09.329Z,100093.09
2022-11-03T02:12:37.317Z,100087.09
2022-11-03T02:15:10.478Z,100086.69
2022-11-03T02:17:39.661Z,100087.41
2022-11-03T02:20:17.633Z,100087.38
2022-11-03T02:23:10.590Z,100090.03
2022-11-03T02:25:54.702Z,100087.13
2022-11-03T02:28:22.607Z,100085.78
2022-11-03T02:31:12.445Z,100091.69
2022-11-03T02:33:59.789Z,100089.50
2022-11-03T02:36:33.217Z,100079.31
2022-11-03T02:39:11.478Z,100077.13
2022-11-03T02:41:40.379Z,100071.59
2022-11-03T02:44:12.061Z,100071.13
2022-11-03T02:46:41.106Z,100074.13
2022-11-03T02:49:07.883Z,100066.19
2022-11-03T02:51:34.969Z,100070.88
2022-11-03T02:54:08.611Z,100062.31
2022-11-03T02:56:37.346Z,100055.19
2022-11-03T02:59:13.759Z,100056.66
2022-11-03T03:01:52.578Z,100059.59
2022-11-03T03:04:35.217Z,100064.81
2022-11-03T03:07:06.844Z,100065.72
2022-11-03T03:09:41.469Z,100064.91
2022-11-03T03:12:10.691Z,100048.59
2022-11-03T03:14:41.760Z,100044.53
2022-11-03T03:17:33.009Z,100039.00
2022-11-03T03:20:05.742Z,100046.59
2022-11-03T03:22:39.013Z,100045.78
2022-11-03T03:25:23.978Z,100044.53
2022-11-03T03:27:57.223Z,100037.59
2022-11-03T03:30:23.857Z,100042.09
2022-11-03T03:32:52.409Z,100046.47
2022-11-03T03:35:25.781Z,100039.47
2022-11-03T03:37:57.129Z,100040.97
2022-11-03T03:40:29.945Z,100035.00
2022-11-03T03:42:57.700Z,100037.31
2022-11-03T03:45:26.636Z,100034.19
2022-11-03T03:47:57.502Z,100039.34
2022-11-03T03:50:26.848Z,100036.25
2022-11-03T03:53:05.255Z,100033.28
2022-11-03T03:55:41.951Z,100020.78
2022-11-03T03:58:12.309Z,100026.28
2022-11-03T04:00:40.266Z,100024.22
2022-11-03T04:03:13.491Z,100027.31
2022-11-03T04:05:39.977Z,100023.75
2022-11-03T04:08:06.699Z,100021.81
2022-11-03T04:10:33.451Z,100026.16
2022-11-03T04:13:18.331Z,100015.16
2022-11-03T04:15:57.224Z,100007.34
2022-11-03T04:18:42.738Z,100012.97
2022-11-03T04:21:31.608Z,99998.06
2022-11-03T04:24:00.451Z,99999.44
2022-11-03T04:26:27.982Z,100001.38
2022-11-03T04:28:55.633Z,99992.00
2022-11-03T04:31:22.612Z,99996.81
2022-11-03T04:33:49.252Z,99987.16
2022-11-03T04:36:21.827Z,99985.31
2022-11-03T04:38:49.405Z,99982.31
2022-11-03T04:41:22.927Z,99984.28
2022-11-03T04:43:50.140Z,99980.81
2022-11-03T04:46:24.494Z,99978.19
2022-11-03T04:48:53.457Z,99973.13
2022-11-03T04:51:26.661Z,99969.56
2022-11-03T04:53:56.312Z,99981.41
2022-11-03T04:56:24.979Z,99971.31
2022-11-03T04:58:52.612Z,99971.41
2022-11-03T05:01:24.840Z,99978.59
2022-11-03T05:03:54.357Z,99960.50
2022-11-03T05:06:28.799Z,99964.06
2022-11-03T05:08:58.559Z,99958.19
2022-11-03T05:11:32.673Z,99966.94
2022-11-03T05:14:02.380Z,99961.66
2022-11-03T05:16:31.212Z,99961.66
2022-11-03T05:18:58.017Z,99954.66
2022-11-03T05:21:27.244Z,99955.47
2022-11-03T05:24:02.799Z,99960.06
2022-11-03T05:26:34.582Z,99964.88
2022-11-03T05:29:13.340Z,99958.09
2022-11-03T05:31:42.133Z,99963.16
2022-11-03T05:34:31.741Z,99959.41
2022-11-03T05:37:00.019Z,99966.75
2022-11-03T05:39:31.940Z,99963.88
2022-11-03T05:41:59.779Z,99964.22
2022-11-03T05:44:34.306Z,99959.06
2022-11-03T05:47:04.600Z,99964.91
2022-11-03T05:49:34.084Z,99954.13
2022-11-03T05:52:00.753Z,99953.78
2022-11-03T05:54:32.389Z,99968.34
2022-11-03T05:56:59.012Z,99962.94
2022-11-03T05:59:28.488Z,99968.81
2022-11-03T06:02:00.337Z,99973.84
2022-11-03T06:04:32.669Z,99967.19
2022-11-03T06:07:03.189Z,99971.88
2022-11-03T06:09:33.049Z,99967.91
2022-11-03T06:12:02.235Z,99969.38
2022-11-03T06:14:31.332Z,99972.69
2022-11-03T06:17:11.844Z,99972.94
2022-11-03T06:19:42.179Z,99970.63
2022-11-03T06:22:16.977Z,99972.69
2022-11-03T06:24:43.856Z,99976.69
2022-11-03T06:27:16.003Z,99973.03
2022-11-03T06:29:48.929Z,99982.13
2022-11-03T06:32:15.457Z,99982.47
2022-11-03T06:34:47.228Z,99982.81
2022-11-03T06:37:21.343Z,99989.59
2022-11-03T06:39:49.155Z,99997.47
2022-11-03T06:42:19.539Z,99989.09
2022-11-03T06:44:48.879Z,99993.09
2022-11-03T06:47:22.729Z,100000.34
2022-11-03T06:49:51.205Z,99997.44
2022-11-03T06:52:28.378Z,99999.25
2022-11-03T06:55:00.911Z,99985.94
2022-11-03T06:57:33.509Z,99986.88
2022-11-03T07:00:28.631Z,99995.22
2022-11-03T07:02:53.708Z,99980.41
2022-11-03T07:05:26.104Z,99990.47
2022-11-03T07:07:55.452Z,99988.38
2022-11-03T07:10:28.530Z,99983.78
2022-11-03T07:12:56.284Z,99988.03
2022-11-03T07:15:33.265Z,99982.41
2022-11-03T07:18:01.033Z,99987.59
2022-11-03T07:20:28.448Z,99993.38
2022-11-03T07:23:01.244Z,99984.28
2022-11-03T07:25:27.788Z,99983.09
2022-11-03T07:27:57.290Z,99977.41
2022-11-03T07:30:44.033Z,99973.56
2022-11-03T07:38:34.537Z,99953.44
2022-11-03T07:53:12.474Z,99938.72
2022-11-03T07:55:38.964Z,99940.53
2022-11-03T07:58:34.161Z,99927.91
2022-11-03T08:01:02.808Z,99921.44
2022-11-03T08:03:46.258Z,99926.63
2022-11-03T08:06:14.692Z,99922.94
2022-11-03T08:08:43.841Z,99925.69
2022-11-03T08:11:10.414Z,99914.59
2022-11-03T08:13:37.039Z,99917.53
2022-11-03T08:16:03.882Z,99916.81
2022-11-03T08:18:30.435Z,99903.03
2022-11-03T08:23:32.604Z,99914.03
2022-11-03T08:25:59.337Z,99904.06
2022-11-03T08:28:25.946Z,99908.34
2022-11-03T08:30:52.464Z,99898.81
2022-11-03T08:41:24.428Z,99878.69
2022-11-03T08:43:51.008Z,99875.00
2022-11-03T08:46:18.470Z,99874.19
2022-11-03T08:48:45.636Z,99870.59
2022-11-03T08:51:13.999Z,99863.94
2022-11-03T08:53:42.856Z,99862.63
2022-11-03T08:56:12.519Z,99855.66
2022-11-03T08:58:40.858Z,99849.31
2022-11-03T09:03:42.739Z,99836.81
2022-11-03T09:11:44.004Z,99826.00
2022-11-03T09:14:10.616Z,99816.09
2022-11-03T09:19:12.476Z,99811.53
2022-11-03T09:21:39.006Z,99815.31
2022-11-03T09:24:05.963Z,99815.25
2022-11-03T09:26:32.465Z,99808.78
2022-11-03T09:28:59.041Z,99807.28
2022-11-03T09:31:28.473Z,99804.22
2022-11-03T09:33:55.194Z,99807.06
2022-11-03T09:36:21.753Z,99805.84
2022-11-03T09:38:48.242Z,99795.72
2022-11-03T09:41:28.252Z,99791.28
2022-11-03T09:44:02.614Z,99783.66
2022-11-03T09:46:30.270Z,99773.78
2022-11-03T09:48:58.269Z,99783.66
2022-11-03T09:51:26.800Z,99783.97
2022-11-03T09:53:53.911Z,99776.72
2022-11-03T09:56:23.036Z,99778.13
2022-11-03T09:58:54.053Z,99760.19
2022-11-03T10:01:21.741Z,99760.34
2022-11-03T10:03:48.405Z,99760.25
2022-11-03T10:06:17.111Z,99762.53
2022-11-03T10:08:46.155Z,99750.59
2022-11-03T10:11:13.488Z,99741.03
2022-11-03T10:13:43.651Z,99741.69
2022-11-03T10:16:22.352Z,99737.34
2022-11-03T10:18:49.448Z,99728.25
2022-11-03T10:21:19.440Z,99725.66
2022-11-03T10:23:46.393Z,99717.84
2022-11-03T10:26:19.028Z,99708.16
2022-11-03T10:29:06.042Z,99710.84
2022-11-03T10:31:38.696Z,99712.44
2022-11-03T10:34:07.005Z,99706.91
2022-11-03T10:36:34.960Z,99692.13
2022-11-03T10:39:29.554Z,99693.34
2022-11-03T10:41:58.514Z,99681.91
2022-11-03T10:44:28.094Z,99680.44
2022-11-03T10:47:04.727Z,99671.03
2022-11-03T10:49:34.003Z,99663.56
2022-11-03T10:52:23.989Z,99660.75
2022-11-03T10:54:53.670Z,99659.16
2022-11-03T10:57:21.684Z,99655.13
2022-11-03T10:59:50.747Z,99648.25
2022-11-03T11:02:24.603Z,99650.44
2022-11-03T11:05:03.139Z,99635.91
2022-11-03T11:07:36.479Z,99637.69
2022-11-03T11:10:12.134Z,99627.09
2022-11-03T11:12:39.443Z,99627.84
2022-11-03T11:15:39.194Z,99619.59
2022-11-03T11:18:06.159Z,99619.88
2022-11-03T11:20:38.465Z,99602.09
2022-11-03T11:23:37.468Z,99608.91
2022-11-03T11:26:15.554Z,99592.53
2022-11-03T11:28:46.908Z,99594.25
2022-11-03T11:31:22.568Z,99586.41
2022-11-03T11:33:49.992Z,99582.47
2022-11-03T11:36:25.008Z,99575.38
2022-11-03T11:38:52.425Z,99570.78
2022-11-03T11:41:20.819Z,99568.66
2022-11-03T11:43:47.514Z,99560.06
2022-11-03T11:46:23.269Z,99542.31
2022-11-03T11:48:57.263Z,99555.69
2022-11-03T11:51:25.176Z,99539.81
2022-11-03T11:54:09.879Z,99535.78
2022-11-03T11:56:47.336Z,99541.03
2022-11-03T11:59:25.397Z,99528.78
2022-11-03T12:01:55.035Z,99522.63
2022-11-03T12:04:28.170Z,99518.78
2022-11-03T12:06:55.934Z,99522.34
2022-11-03T12:09:27.545Z,99508.47
2022-11-03T12:12:04.995Z,99510.47
2022-11-03T12:14:36.537Z,99507.00
2022-11-03T12:17:18.141Z,99504.75
2022-11-03T12:19:46.558Z,99492.84
2022-11-03T12:22:40.013Z,99480.31
2022-11-03T12:25:26.664Z,99489.22
2022-11-03T12:27:53.201Z,99483.72
2022-11-03T12:30:19.971Z,99469.00
2022-11-03T12:32:47.042Z,99460.91
2022-11-03T12:35:14.153Z,99449.72
2022-11-03T12:37:41.875Z,99456.75
2022-11-03T12:40:09.399Z,99451.09
2022-11-03T12:42:36.068Z,99439.78
2022-11-03T12:45:02.837Z,99441.31
2022-11-03T12:47:29.485Z,99431.44
2022-11-03T12:49:56.030Z,99430.31
2022-11-03T12:52:22.541Z,99426.97
2022-11-03T12:54:49.113Z,99424.63
2022-11-03T12:57:15.629Z,99420.56
2022-11-03T12:59:42.118Z,99416.53
2022-11-03T13:02:10.458Z,99407.97
2022-11-03T13:04:37.979Z,99410.53
2022-11-03T13:07:04.546Z,99409.81
2022-11-03T13:09:31.146Z,99407.09
2022-11-03T13:12:16.429Z,99403.69
2022-11-03T13:14:46.031Z,99397.72
2022-11-03T13:17:14.412Z,99391.63
2022-11-03T13:19:40.935Z,99395.03
2022-11-03T13:22:07.586Z,99390.41
2022-11-03T13:24:34.097Z,99389.16
2022-11-03T13:27:00.612Z,99389.53
2022-11-03T13:29:31.074Z,99390.41
2022-11-03T13:32:00.696Z,99386.31
2022-11-03T13:34:27.226Z,99386.31
2022-11-03T13:36:53.741Z,99374.78
2022-11-03T13:39:20.385Z,99371.28
2022-11-03T13:41:47.441Z,99371.41
2022-11-03T13:44:14.247Z,99361.94
2022-11-03T13:46:40.787Z,99363.41
2022-11-03T13:51:53.832Z,99362.34
2022-11-03T13:59:53.405Z,99346.19
2022-11-03T14:05:08.768Z,99341.84
2022-11-03T14:07:38.071Z,99345.06
2022-11-03T14:10:04.875Z,99341.53
2022-11-03T14:12:31.377Z,99339.50
2022-11-03T14:15:04.160Z,99337.16
2022-11-03T14:17:31.108Z,99332.50
2022-11-03T14:20:02.576Z,99337.75
2022-11-03T14:22:30.936Z,99343.75
2022-11-03T14:24:57.577Z,99340.97
2022-11-03T14:27:24.639Z,99339.81
2022-11-03T14:29:51.346Z,99335.06
2022-11-03T14:32:19.590Z,99327.91
2022-11-03T14:34:46.500Z,99330.31
2022-11-03T14:37:13.964Z,99324.78
2022-11-03T14:39:41.033Z,99322.47
2022-11-03T14:42:15.329Z,99316.53
2022-11-03T14:44:43.475Z,99314.56
2022-11-03T14:47:12.574Z,99310.25
2022-11-03T14:49:39.147Z,99307.84
2022-11-03T14:52:07.508Z,99309.06
2022-11-03T14:54:34.823Z,99312.63
2022-11-03T14:57:01.955Z,99296.38
2022-11-03T14:59:29.026Z,99294.78
2022-11-03T15:01:56.283Z,99306.69
2022-11-03T15:04:22.965Z,99301.13
2022-11-03T15:06:50.138Z,99295.56
2022-11-03T15:09:17.009Z,99288.44
2022-11-03T15:11:44.297Z,99297.94
2022-11-03T15:14:12.080Z,99294.78
2022-11-03T15:16:39.299Z,99289.22
2022-11-03T15:19:06.833Z,99288.03
2022-11-03T15:21:33.700Z,99297.16
2022-11-03T15:26:46.946Z,99289.97
2022-11-03T15:29:13.532Z,99283.63
2022-11-03T15:31:44.529Z,99291.91
2022-11-03T15:34:14.014Z,99290.31
2022-11-03T15:36:40.481Z,99273.66
2022-11-03T15:39:07.089Z,99275.25
2022-11-03T15:41:33.649Z,99270.47
2022-11-03T15:44:00.125Z,99265.31
2022-11-03T15:46:26.796Z,99256.19
2022-11-03T15:48:54.611Z,99256.59
2022-11-03T15:51:21.243Z,99246.31
2022-11-03T15:53:47.761Z,99236.00
2022-11-03T15:56:14.272Z,99230.84
2022-11-03T15:58:40.869Z,99224.88
2022-11-03T16:01:07.582Z,99238.72
2022-11-03T16:03:34.232Z,99229.97
2022-11-03T16:06:00.879Z,99220.50
2022-11-03T16:08:27.401Z,99222.84
2022-11-03T16:10:57.881Z,99223.22
2022-11-03T16:13:25.183Z,99215.28
2022-11-03T16:15:53.113Z,99218.84
2022-11-03T16:18:19.755Z,99214.03
2022-11-03T16:20:46.293Z,99219.97
2022-11-03T16:23:12.822Z,99214.44
2022-11-03T16:25:39.571Z,99212.06
2022-11-03T16:28:07.084Z,99214.81
2022-11-03T16:30:35.260Z,99211.25
2022-11-03T16:33:01.984Z,99211.25
2022-11-03T16:35:29.698Z,99201.38
2022-11-03T16:37:56.585Z,99200.19
2022-11-03T16:40:23.671Z,99202.53
2022-11-03T16:42:50.257Z,99194.63
2022-11-03T16:45:22.165Z,99185.88
2022-11-03T16:47:49.903Z,99181.09
2022-11-03T16:50:17.040Z,99192.56
2022-11-03T16:52:44.419Z,99192.16
2022-11-03T16:55:15.015Z,99183.81
2022-11-03T16:57:42.352Z,99180.66
2022-11-03T17:00:14.093Z,99179.47
2022-11-03T17:02:41.197Z,99175.13
2022-11-03T17:05:08.908Z,99175.13
2022-11-03T17:07:35.494Z,99163.66
2022-11-03T17:10:02.239Z,99164.84
2022-11-03T17:12:28.742Z,99157.34
2022-11-03T17:14:56.806Z,99155.03
2022-11-03T17:17:23.652Z,99155.44
2022-11-03T17:19:50.232Z,99155.84
2022-11-03T17:22:17.021Z,99159.78
2022-11-03T17:24:43.822Z,99160.19
2022-11-03T17:27:15.943Z,99159.00
2022-11-03T17:29:47.076Z,99146.75
2022-11-03T17:32:30.268Z,99141.22
2022-11-03T17:34:58.173Z,99141.22
2022-11-03T17:37:26.187Z,99131.31
2022-11-03T17:39:53.000Z,99123.41
2022-11-03T17:42:27.032Z,99131.28
2022-11-03T17:44:55.849Z,99126.13
2022-11-03T17:47:24.252Z,99130.44
2022-11-03T17:49:50.951Z,99124.16
2022-11-03T17:52:27.913Z,99125.00
2022-11-03T17:54:57.037Z,99127.38
2022-11-03T17:57:24.003Z,99124.66
2022-11-03T17:59:53.025Z,99130.59
2022-11-03T18:02:25.272Z,99128.22
2022-11-03T18:04:59.948Z,99125.09
2022-11-03T18:07:28.468Z,99116.03
2022-11-03T18:09:56.094Z,99118.78
2022-11-03T18:12:45.697Z,99116.47
2022-11-03T18:15:20.756Z,99118.84
2022-11-03T18:17:47.584Z,99116.44
2022-11-03T18:20:17.301Z,99106.91
2022-11-03T18:22:44.315Z,99114.84
2022-11-03T18:25:20.401Z,99107.72
2022-11-03T18:27:47.772Z,99111.25
2022-11-03T18:30:18.924Z,99098.94
2022-11-03T18:32:46.056Z,99092.66
2022-11-03T18:35:22.824Z,99083.53
2022-11-03T18:37:50.565Z,99074.03
2022-11-03T18:40:17.392Z,99074.06
2022-11-03T18:42:43.872Z,99070.16
2022-11-03T18:45:16.372Z,99069.72
2022-11-03T18:47:43.709Z,99068.09
2022-11-03T18:50:15.599Z,99069.63
2022-11-03T18:52:47.541Z,99065.25
2022-11-03T18:55:16.122Z,99049.03
2022-11-03T18:57:43.012Z,99044.25
2022-11-03T19:00:21.734Z,99036.28
2022-11-03T19:02:49.168Z,99029.13
2022-11-03T19:05:16.844Z,99042.94
2022-11-03T19:07:45.464Z,99038.19
2022-11-03T19:10:14.848Z,99045.28
2022-11-03T19:12:45.683Z,99040.91
2022-11-03T19:15:23.894Z,99044.84
2022-11-03T19:17:54.634Z,99034.94
2022-11-03T19:20:21.705Z,99032.94
2022-11-03T19:22:48.177Z,99024.19
2022-11-03T19:25:15.539Z,99021.38
2022-11-03T19:27:45.907Z,99015.81
2022-11-03T19:30:14.965Z,99017.38
2022-11-03T19:32:45.956Z,99012.22
2022-11-03T19:35:22.215Z,99003.50
2022-11-03T19:37:58.697Z,98998.34
2022-11-03T19:40:25.332Z,98997.16
2022-11-03T19:42:51.959Z,98999.53
2022-11-03T19:45:19.812Z,98989.19
2022-11-03T19:50:45.538Z,98969.69
2022-11-03T19:53:19.116Z,98969.22
2022-11-03T19:55:45.950Z,98962.47
2022-11-03T19:58:21.459Z,98969.94
2022-11-03T20:00:49.336Z,98973.88
2022-11-03T20:03:16.621Z,98975.91
2022-11-03T20:05:49.364Z,98970.84
2022-11-03T20:08:20.243Z,98965.34
2022-11-03T20:10:48.036Z,98954.69
2022-11-03T20:13:23.810Z,98950.31
2022-11-03T20:15:53.549Z,98947.91
2022-11-03T20:18:22.601Z,98941.59
2022-11-03T20:20:49.486Z,98944.72
2022-11-03T20:23:23.323Z,98946.22
2022-11-03T20:25:50.057Z,98941.84
2022-11-03T20:28:20.773Z,98935.50
2022-11-03T20:30:48.055Z,98925.53
2022-11-03T20:33:16.941Z,98913.59
2022-11-03T20:35:44.461Z,98904.06
2022-11-03T20:38:13.065Z,98897.63
2022-11-03T20:40:40.587Z,98899.53
2022-11-03T20:43:14.606Z,98904.59
2022-11-03T20:45:41.159Z,98878.53
2022-11-03T20:48:12.008Z,98882.75
2022-11-03T20:50:39.475Z,98880.75
2022-11-03T20:53:13.752Z,98876.00
2022-11-03T20:55:40.379Z,98870.84
2022-11-03T20:58:13.292Z,98876.28
2022-11-03T21:00:41.422Z,98885.69
2022-11-03T21:03:31.353Z,98871.91
2022-11-03T21:06:00.963Z,98873.88
2022-11-03T21:08:27.478Z,98868.38
2022-11-03T21:10:53.998Z,98871.91
2022-11-03T21:13:20.557Z,98857.69
2022-11-03T21:16:23.694Z,98854.91
2022-11-03T21:19:09.727Z,98852.06
2022-11-03T21:21:36.201Z,98858.75
2022-11-03T21:24:02.676Z,98850.81
2022-11-03T21:26:29.172Z,98850.75
2022-11-03T21:28:55.654Z,98846.03
2022-11-03T21:31:22.180Z,98840.88
2022-11-03T21:33:48.678Z,98840.47
2022-11-03T21:36:15.157Z,98830.25
2022-11-03T21:38:41.636Z,98839.31
2022-11-03T21:41:26.908Z,98841.63
2022-11-03T21:44:11.925Z,98832.13
2022-11-03T21:46:38.754Z,98828.19
2022-11-03T21:49:24.055Z,98817.91
2022-11-03T21:51:50.568Z,98819.44
2022-11-03T21:54:17.164Z,98820.19
2022-11-03T21:56:43.757Z,98817.41
2022-11-03T21:59:10.275Z,98803.56
2022-11-03T22:01:37.025Z,98799.94
2022-11-03T22:04:03.760Z,98800.66
2022-11-03T22:06:30.348Z,98802.22
2022-11-03T22:08:56.900Z,98794.38
2022-11-03T22:11:23.491Z,98799.88
2022-11-03T22:13:53.785Z,98788.59
2022-11-03T22:16:40.033Z,98775.97
2022-11-03T22:19:36.167Z,98773.63
2022-11-03T22:22:24.361Z,98774.31
2022-11-03T22:25:09.284Z,98777.03
2022-11-03T22:27:35.781Z,98785.28
2022-11-03T22:30:20.694Z,98772.59
2022-11-03T22:32:51.989Z,98768.22
2022-11-03T22:35:37.174Z,98773.69
2022-11-03T22:38:12.658Z,98768.94
2022-11-03T22:40:59.355Z,98768.13
2022-11-03T22:43:45.461Z,98755.13
2022-11-03T22:46:13.927Z,98759.41
2022-11-03T22:48:40.449Z,98752.75
2022-11-03T22:51:15.835Z,98734.25
2022-11-03T22:54:01.669Z,98733.00
2022-11-03T22:56:29.961Z,98717.25
2022-11-03T22:58:57.041Z,98717.19
2022-11-03T23:01:26.878Z,98696.72
2022-11-03T23:03:53.944Z,98688.81
2022-11-03T23:06:28.627Z,98691.88
2022-11-03T23:08:56.025Z,98657.28
2022-11-03T23:11:25.328Z,98659.56
2022-11-03T23:13:54.662Z,98659.56
2022-11-03T23:16:25.557Z,98676.03
2022-11-03T23:19:11.443Z,98664.25
2022-11-03T23:21:38.374Z,98658.75
2022-11-03T23:24:23.952Z,98644.66
2022-11-03T23:26:50.574Z,98656.47
2022-11-03T23:29:17.326Z,98639.66
2022-11-03T23:31:45.225Z,98627.50
2022-11-03T23:34:13.297Z,98620.81
2022-11-03T23:36:40.304Z,98629.88
2022-11-03T23:39:07.256Z,98629.13
2022-11-03T23:41:34.141Z,98620.50
2022-11-03T23:44:00.709Z,98625.25
2022-11-03T23:46:47.194Z,98614.25
2022-11-03T23:49:14.587Z,98603.22
2022-11-03T23:51:42.155Z,98611.09
2022-11-03T23:54:10.649Z,98602.88
2022-11-03T23:57:01.482Z,98602.91
2022-11-03T23:59:29.827Z,98601.75
